x

Northern Hawaii One - 245nm Ne Of Honolulu Hi (51000) Weather Station

8:50pm - Mon 1st Sep 2014 All times are HST. -10 hours from GMT.

  • Wind
    13mph, 16mph gusts
  • Sea Temp 78°f
  • Air Temp 76°f
  • Sea Pressure 1019.4mb
  • Northern Hawaii One - 245nm Ne Of Honolulu Hi
  • Northern Hawaii One - 245nm Ne Of Honolulu Hi

More Historic Weather Station data

Upgrade to MSW Pro to gain access to the past 30 days of data for over 8000 Wavebouys and Weather Stations around the globe.

Join Pro

Comparision Forecast

View Surf forecast
   
Mon 09/01 8:50pm  -   -   -  13 16 mph 1019.4mb 78f 76f
7:50pm 4.5ft 8s 6s 11 16 mph 1019.1mb 78f 76f
6:50pm 4.5ft 8s 6s 11 16 mph 1018.7mb 79f 76f
5:50pm 5ft 8s 6s 13 18 mph 1018.2mb 79f 76f
4:50pm 5ft 8s 7s 13 16 mph 1018.3mb 79f 76f
3:50pm 5ft 8s 7s 11 13 mph 1018.5mb 79f 76f
2:50pm 5ft 8s 6s 11 16 mph 1018.7mb 79f 76f
1:50pm 5ft 8s 7s 11 13 mph 1019.1mb 78f 76f
12:50pm 5ft 8s 7s 9 13 mph 1019.5mb 78f 76f
11:50am 4.5ft 8s 7s 9 11 mph 1019.8mb 78f 76f
10:50am 5ft 14s 7s 7 9 mph 1020.1mb 78f 75f
9:50am 5ft 8s 7s 4 7 mph 1020.2mb 78f 75f
8:50am 5ft 14s 7s 11 13 mph 1020mb 77f 75f
7:50am 5ft 14s 7s 11 13 mph 1019.9mb 77f 75f
6:50am  -   -   -  11
mph
1019.8mb 77f 75f
5:50am 5ft 8s 7s 11 13 mph 1019.5mb 77f 75f
4:50am 5ft 9s 7s 9 11 mph 1019.3mb 77f 75f
3:50am 5ft 9s 7s 9 11 mph 1019.2mb 77f 75f
2:50am 5ft 8s 7s 7 9 mph 1019.2mb 77f 75f
1:50am 5ft 9s 7s 9 11 mph 1019.6mb 78f 75f
12:50am 5ft 9s 7s 9 11 mph 1019.8mb 78f 75f
Sun 08/31 11:50pm 5ft 9s 7s 9 13 mph 1020.2mb 78f 75f
10:50pm 5.5ft 14s 7s 9 13 mph 1020.6mb 78f 75f
9:50pm 5ft 9s 7s 11 13 mph 1020.8mb 78f 76f
8:50pm 5.5ft 9s 7s 11 16 mph 1020.8mb 78f 75f
7:50pm 5ft 10s 8s 9 11 mph 1020.7mb 78f 76f
6:50pm 5ft 13s 8s 9 11 mph 1020.2mb 79f 76f
5:50pm 5ft 9s 8s 7 9 mph 1019.8mb 79f 76f
4:50pm 5ft 15s 8s 7 9 mph 1019.7mb 79f 76f
3:50pm 5ft 9s 8s 7 9 mph 1019.6mb 79f 76f
2:50pm 5ft 9s 7s 9 16 mph 1019.7mb 79f 75f
1:50pm 5ft 10s 7s 7 9 mph 1020.1mb 79f 75f
12:50pm 5ft 14s 8s 11 13 mph 1020.4mb 78f 75f
11:50am 5ft 14s 7s 7 9 mph 1020.9mb 78f 75f
10:50am 5ft 14s 8s 7 11 mph 1021.3mb 78f 75f
9:50am 5ft 15s 8s 7 9 mph 1021.8mb 78f 75f
8:50am 5ft 9s 8s 7 9 mph 1021.6mb 77f 75f
7:50am 5.5ft 10s 8s 7 9 mph 1021.3mb 77f 75f
6:50am 5ft 10s 8s 7 9 mph 1021mb 77f 75f
5:50am 5.5ft 10s 8s 7 9 mph 1020.6mb 77f 75f
4:50am 5.5ft 11s 8s 4 9 mph 1020.2mb 77f 75f
3:50am 5.5ft 11s 8s 7 9 mph 1020.1mb 77f 75f
2:50am 6ft 14s 8s 7 9 mph 1020mb 77f 75f
1:50am 6.5ft 14s 8s 7 9 mph 1020mb 77f 75f
12:50am 6ft 11s 8s 7 11 mph 1020.2mb 77f 75f
Sat 08/30 11:50pm 6ft 11s 8s 7 9 mph 1020.4mb 77f 75f
10:50pm 6ft 13s 8s 9 11 mph 1020.6mb 77f 75f
9:50pm 6ft 11s 8s 11 13 mph 1020.8mb 78f 75f
8:50pm 7ft 13s 8s 9 11 mph 1020.9mb 78f 75f
7:50pm 6.5ft 11s 8s 11 13 mph 1020.4mb 78f 75f
6:50pm 7ft 11s 8s 11 13 mph 1019.9mb 78f 75f
5:50pm  -   -   -  11 16 mph 1019.6mb 78f 76f
4:50pm 7ft 12s 8s 11 13 mph 1019.4mb 79f 75f
3:50pm 6.5ft 12s 8s 11 13 mph 1019.4mb 79f 75f
2:50pm 6.5ft 12s 8s 13 16 mph 1019.3mb 78f 75f
1:50pm 5ft 13s 7s 9 11 mph 1019.8mb 78f 76f
12:50pm 5.5ft 12s 7s 9 13 mph 1020.2mb 78f 76f
11:50am 6ft 14s 8s 11 13 mph 1020.4mb 78f 75f
10:50am 6ft 13s 8s 11 16 mph 1020.5mb 78f 76f
9:50am 7ft 13s 9s 9 11 mph 1020.6mb 77f 76f
8:50am 7.5ft 13s 9s 9 11 mph 1020.3mb 77f 76f
7:50am 7ft 13s 9s 9 11 mph 1019.9mb 77f 76f
6:50am 6.5ft 14s 8s 7 9 mph 1019.6mb 77f 76f
5:50am 5.5ft 13s 7s 9 11 mph 1019.2mb 77f 76f
4:50am 6ft 13s 8s 7 9 mph 1018.7mb 77f 76f
3:50am 7ft 15s 8s 7 9 mph 1018.2mb 77f 75f
2:50am  -   -   -  9 11 mph 1018.1mb 77f 76f
1:50am 6ft 11s 7s 9 13 mph 1018.3mb 77f 76f
12:50am 6ft 14s 7s 11 13 mph 1018.6mb 77f 76f
Fri 08/29 11:50pm  -   -   -  11 16 mph 1019mb 77f 76f
10:50pm  -   -   -  13 16 mph 1019.2mb 77f 76f
9:50pm  -   -   -  13
mph
1019.1mb 77f 76f
8:50pm  -   -   -  13 18 mph 1018.8mb 78f 76f
7:50pm  -   -   -  16 18 mph 1018.2mb 78f 76f
6:50pm  -   -   -  13 16 mph 1017.6mb 78f 76f
5:50pm 8ft 14s 8s 11 16 mph 1017mb 78f 76f
4:50pm  -   -   -  13 16 mph 1016.8mb 78f 77f
3:50pm 8ft 14s 7s 13 16 mph 1016.6mb 78f 77f
2:50pm  -   -   -  13 18 mph 1016.6mb 78f 77f
1:50pm  -   -   -  13 16 mph 1016.7mb 78f 77f
12:50pm 7ft 14s 7s 16 18 mph 1016.9mb 78f 77f
11:50am 7ft 15s 7s 16 18 mph 1017.1mb 78f 76f
10:50am  -   -   -  18 20 mph 1017.2mb 77f 76f
9:50am  -   -   -  18 22 mph 1016.9mb 77f 75f
8:50am 7ft 14s 7s 13 18 mph 1016.6mb 77f 76f
7:50am  -   -   -  16 20 mph 1015.9mb 77f 76f